Time;durP1;ratioP1;P1;durP2;ratioP2;P2;SDS_P1;SDS_P2;PMS_P1;PMS_P2;Temp;Humidity;BMP_temperature;BMP_pressure;BME280_temperature;BME280_humidity;BME280_pressure;Samples;Min_cycle;Max_cycle;Signal;HPM_P1;HPM_P2
2022/08/17 00:01:01;;;;;;;16.10;6.00;;;22.40;99.90;;;;;;4933787;29;20139;-76
2022/08/17 00:03:33;;;;;;;8.07;4.32;;;22.30;99.90;;;;;;4933262;29;20281;-74
2022/08/17 00:06:06;;;;;;;11.55;5.32;;;22.30;99.90;;;;;;4933605;29;20027;-76
2022/08/17 00:08:35;;;;;;;7.82;4.75;;;22.20;99.90;;;;;;4933462;29;20403;-76
2022/08/17 00:11:05;;;;;;;8.73;5.13;;;22.30;99.90;;;;;;4933694;29;20028;-76
2022/08/17 00:13:38;;;;;;;7.70;3.97;;;22.30;99.90;;;;;;4933290;28;20043;-74
2022/08/17 00:16:10;;;;;;;10.95;5.05;;;22.20;99.90;;;;;;4933774;29;20036;-76
2022/08/17 00:18:37;;;;;;;8.27;4.70;;;22.20;99.90;;;;;;4933351;29;20074;-77
2022/08/17 00:21:05;;;;;;;13.57;5.40;;;22.20;99.90;;;;;;4933429;29;20032;-78
2022/08/17 00:23:32;;;;;;;8.98;4.82;;;22.10;99.90;;;;;;4933415;29;20071;-76
2022/08/17 00:25:57;;;;;;;15.02;5.18;;;22.10;99.90;;;;;;4933155;29;20035;-77
2022/08/17 00:28:24;;;;;;;11.70;4.70;;;22.00;99.90;;;;;;4933482;29;20042;-77
2022/08/17 00:30:51;;;;;;;12.98;4.63;;;22.00;99.90;;;;;;4933429;29;20142;-77
2022/08/17 00:33:26;;;;;;;8.77;4.50;;;22.10;99.90;;;;;;4948186;28;20043;-77
2022/08/17 00:35:52;;;;;;;9.95;4.55;;;22.10;99.90;;;;;;4954555;28;20027;-77
2022/08/17 00:38:18;;;;;;;10.70;5.45;;;22.00;99.90;;;;;;4954716;28;20030;-77
2022/08/17 00:40:48;;;;;;;8.90;4.82;;;22.00;99.90;;;;;;4955044;28;20066;-77
2022/08/17 00:43:14;;;;;;;8.50;4.93;;;22.00;99.90;;;;;;4954359;28;20046;-77
2022/08/17 00:45:41;;;;;;;7.90;4.85;;;22.10;99.90;;;;;;4954523;28;20498;-76
2022/08/17 00:48:07;;;;;;;8.02;4.78;;;22.00;99.90;;;;;;4954497;28;20031;-77
2022/08/17 00:50:34;;;;;;;13.75;4.95;;;21.90;99.90;;;;;;4954491;28;20023;-77
2022/08/17 00:53:00;;;;;;;8.60;4.63;;;21.80;99.90;;;;;;4954120;28;20082;-76
2022/08/17 00:55:27;;;;;;;13.30;5.80;;;21.80;99.90;;;;;;4954376;28;20042;-77
2022/08/17 00:57:57;;;;;;;9.85;5.20;;;21.80;99.90;;;;;;4954298;28;20501;-77
2022/08/17 01:00:27;;;;;;;10.68;5.97;;;21.80;99.90;;;;;;4954306;28;20027;-75
2022/08/17 01:03:00;;;;;;;9.60;5.13;;;21.80;99.90;;;;;;4954413;28;20050;-77
2022/08/17 01:05:30;;;;;;;12.50;5.57;;;21.80;99.90;;;;;;4954127;28;20023;-76
2022/08/17 01:07:59;;;;;;;11.75;5.63;;;21.80;99.90;;;;;;4954289;28;20023;-77
2022/08/17 01:10:46;;;;;;;7.63;4.90;;;21.80;99.90;;;;;;4954219;28;20023;-78
2022/08/17 01:13:13;;;;;;;9.65;5.10;;;21.80;99.90;;;;;;4954135;28;20035;-77
2022/08/17 01:15:45;;;;;;;10.10;4.97;;;21.70;99.90;;;;;;4955719;28;20042;-77
2022/08/17 01:18:12;;;;;;;11.23;5.20;;;21.70;99.90;;;;;;4958353;28;20027;-77
2022/08/17 01:20:43;;;;;;;7.07;3.95;;;21.70;99.90;;;;;;4957888;28;20031;-77
2022/08/17 01:23:09;;;;;;;8.88;4.88;;;21.70;99.90;;;;;;4958564;28;20102;-76
2022/08/17 01:25:36;;;;;;;10.70;5.20;;;21.60;99.90;;;;;;4957924;28;20075;-77
2022/08/17 01:28:02;;;;;;;10.13;5.47;;;21.60;99.90;;;;;;4958213;28;20384;-77
2022/08/17 01:30:28;;;;;;;9.43;5.95;;;21.50;99.90;;;;;;4957827;28;20016;-77
2022/08/17 01:32:54;;;;;;;11.23;5.80;;;21.40;99.90;;;;;;4957931;28;20038;-77
2022/08/17 01:35:20;;;;;;;23.55;6.78;;;21.40;99.90;;;;;;4958030;28;20039;-77
2022/08/17 01:37:46;;;;;;;10.75;5.43;;;21.50;99.90;;;;;;4957350;28;20101;-74
2022/08/17 01:40:24;;;;;;;9.65;5.32;;;21.40;99.90;;;;;;4957732;28;20031;-76
2022/08/17 01:43:06;;;;;;;18.23;5.90;;;21.40;99.90;;;;;;4956680;28;20034;-77
2022/08/17 01:45:47;;;;;;;8.23;4.57;;;21.40;99.90;;;;;;4957629;28;20043;-77
2022/08/17 01:48:13;;;;;;;13.73;4.72;;;21.40;99.90;;;;;;4957573;28;20448;-77
2022/08/17 01:50:42;;;;;;;9.60;5.07;;;21.30;99.90;;;;;;4956323;28;20363;-77
2022/08/17 01:53:15;;;;;;;12.40;5.22;;;21.30;99.90;;;;;;4957607;28;20042;-76
2022/08/17 01:55:48;;;;;;;9.18;5.00;;;21.20;99.90;;;;;;4957687;28;20055;-77
2022/08/17 01:58:14;;;;;;;9.23;5.03;;;21.20;99.90;;;;;;4957639;28;20055;-77
2022/08/17 02:00:41;;;;;;;11.10;5.57;;;21.20;99.90;;;;;;4957376;28;20031;-72
2022/08/17 02:03:07;;;;;;;11.45;4.97;;;21.20;99.90;;;;;;4957586;28;20031;-76
2022/08/17 02:05:34;;;;;;;12.77;6.07;;;21.10;99.90;;;;;;4957476;28;20023;-77
2022/08/17 02:08:01;;;;;;;9.73;5.32;;;21.10;99.90;;;;;;4956720;28;20066;-77
2022/08/17 02:10:28;;;;;;;14.30;5.47;;;21.10;99.90;;;;;;4957279;28;20059;-75
2022/08/17 02:12:54;;;;;;;10.07;5.32;;;21.10;99.90;;;;;;4956714;28;20054;-78
2022/08/17 02:15:21;;;;;;;13.23;5.93;;;21.10;99.90;;;;;;4956993;28;20070;-77
2022/08/17 02:17:47;;;;;;;14.00;6.07;;;21.10;99.90;;;;;;4956943;28;20023;-77
2022/08/17 02:20:13;;;;;;;11.32;6.07;;;21.10;99.90;;;;;;4956862;28;20119;-77
2022/08/17 02:22:45;;;;;;;12.70;6.00;;;21.10;99.90;;;;;;4956840;28;20016;-75
2022/08/17 02:25:12;;;;;;;;;;;21.10;99.90;;;;;;4957261;28;20035;-70
2022/08/17 02:27:38;;;;;;;10.75;5.65;;;21.10;99.90;;;;;;4956212;28;19953;-77
2022/08/17 02:30:07;;;;;;;12.02;6.15;;;21.00;99.90;;;;;;4956705;28;20027;-76
2022/08/17 02:32:33;;;;;;;14.73;6.13;;;21.00;99.90;;;;;;4956796;28;20016;-75
2022/08/17 02:34:59;;;;;;;10.23;5.78;;;21.00;99.90;;;;;;4956749;28;20501;-77
2022/08/17 02:37:26;;;;;;;10.98;5.95;;;21.00;99.90;;;;;;4956845;28;20114;-77
2022/08/17 02:39:55;;;;;;;10.05;5.72;;;21.00;99.90;;;;;;4956597;28;20030;-76
2022/08/17 02:42:27;;;;;;;10.82;6.05;;;21.00;99.90;;;;;;4956589;28;20026;-77
2022/08/17 02:44:53;;;;;;;13.73;6.03;;;21.00;99.90;;;;;;4956289;28;20478;-75
2022/08/17 02:47:19;;;;;;;11.43;5.75;;;21.00;99.90;;;;;;4955034;28;20487;-77
2022/08/17 02:49:45;;;;;;;10.10;4.97;;;21.00;99.90;;;;;;4956475;28;20027;-77
2022/08/17 02:52:11;;;;;;;13.10;5.68;;;20.90;99.90;;;;;;4956361;28;20110;-77
2022/08/17 02:54:37;;;;;;;14.88;6.40;;;20.90;99.90;;;;;;4956178;28;20488;-76
2022/08/17 02:57:03;;;;;;;12.30;6.03;;;20.80;99.90;;;;;;4956517;28;20019;-77
2022/08/17 02:59:29;;;;;;;13.48;6.32;;;20.70;99.90;;;;;;4956216;28;20359;-77
2022/08/17 03:01:55;;;;;;;12.07;6.13;;;20.70;99.90;;;;;;4956397;28;20101;-77
2022/08/17 03:04:21;;;;;;;11.75;5.97;;;20.70;99.90;;;;;;4956224;28;20119;-76
2022/08/17 03:06:47;;;;;;;13.73;6.22;;;20.70;99.90;;;;;;4956102;28;20094;-76
2022/08/17 03:09:15;;;;;;;13.65;6.32;;;20.70;99.90;;;;;;4956169;28;20552;-77
2022/08/17 03:11:41;;;;;;;11.48;6.30;;;20.60;99.90;;;;;;4955857;28;20030;-77
2022/08/17 03:14:07;;;;;;;15.70;7.15;;;20.60;99.90;;;;;;4956193;28;20083;-77
2022/08/17 03:16:33;;;;;;;10.05;6.07;;;20.60;99.90;;;;;;4955856;28;20023;-78
2022/08/17 03:18:59;;;;;;;13.85;6.20;;;20.50;99.90;;;;;;4955850;28;20110;-75
2022/08/17 03:21:25;;;;;;;12.98;6.65;;;20.50;99.90;;;;;;4955867;28;20020;-77
2022/08/17 03:23:50;;;;;;;12.60;6.75;;;20.50;99.90;;;;;;4955656;28;20034;-77
2022/08/17 03:26:16;;;;;;;13.23;6.60;;;20.50;99.90;;;;;;4955962;28;20110;-78
2022/08/17 03:28:42;;;;;;;14.30;6.43;;;20.50;99.90;;;;;;4970241;28;20450;-76
2022/08/17 03:31:08;;;;;;;16.98;7.03;;;20.40;99.90;;;;;;4955580;28;20019;-77
2022/08/17 03:33:34;;;;;;;12.23;6.60;;;20.50;99.90;;;;;;4955514;28;20039;-77
2022/08/17 03:36:00;;;;;;;11.25;6.15;;;20.50;99.90;;;;;;4970546;28;20067;-77
2022/08/17 03:38:26;;;;;;;23.13;5.88;;;20.40;99.90;;;;;;4954809;28;20028;-77
2022/08/17 03:40:52;;;;;;;11.48;5.45;;;20.40;99.90;;;;;;4955227;28;20504;-77
2022/08/17 03:43:19;;;;;;;12.63;6.05;;;20.40;99.90;;;;;;4955502;28;20034;-78
2022/08/17 03:57:02;;;;;;;12.18;6.93;;;20.50;99.90;;;;;;4955395;28;20031;-77
2022/08/17 03:59:28;;;;;;;17.40;7.15;;;20.60;99.90;;;;;;4954926;28;20110;-78
2022/08/17 04:01:57;;;;;;;15.80;7.10;;;20.90;99.90;;;;;;4954216;28;20023;-76
2022/08/17 04:04:23;;;;;;;13.48;7.32;;;21.30;99.90;;;;;;4954725;28;20059;-76
2022/08/17 04:06:50;;;;;;;12.43;6.43;;;21.60;99.90;;;;;;4953930;28;20043;-77
2022/08/17 04:09:16;;;;;;;9.20;5.75;;;21.90;99.90;;;;;;4953794;28;20641;-68
2022/08/17 04:11:42;;;;;;;10.57;5.55;;;22.10;99.90;;;;;;4953846;28;20020;-78
2022/08/17 04:14:08;;;;;;;10.82;5.63;;;22.60;99.90;;;;;;4953915;28;20505;-77
2022/08/17 04:16:35;;;;;;;16.65;6.97;;;22.90;99.90;;;;;;4954145;28;20027;-75
2022/08/17 04:19:03;;;;;;;11.50;6.15;;;23.30;99.90;;;;;;4952835;28;20043;-76
2022/08/17 04:21:28;;;;;;;11.15;5.78;;;23.80;99.90;;;;;;4953106;28;20020;-78
2022/08/17 04:23:54;;;;;;;13.75;5.82;;;23.90;99.90;;;;;;4954404;28;20081;-77
2022/08/17 04:26:21;;;;;;;11.05;6.70;;;24.20;99.90;;;;;;4954586;28;20030;-79
2022/08/17 04:28:47;;;;;;;11.23;8.30;;;24.80;98.80;;;;;;4954207;28;20023;-77
2022/08/17 04:31:14;;;;;;;8.90;5.78;;;25.10;97.30;;;;;;4954735;28;20086;-76
2022/08/17 04:33:44;;;;;;;14.02;7.57;;;25.20;96.40;;;;;;4954663;28;20039;-75
2022/08/17 04:36:12;;;;;;;15.40;8.57;;;25.40;94.90;;;;;;4954205;28;20024;-75
2022/08/17 04:38:40;;;;;;;23.60;8.10;;;;;;;;;;4953908;28;20102;-75
2022/08/17 04:43:54;;;;;;;14.50;8.02;;;26.60;99.90;;;;;;4954205;28;20110;-74
2022/08/17 04:46:25;;;;;;;16.80;10.00;;;27.20;90.10;;;;;;4954290;28;20055;-76
2022/08/17 04:48:54;;;;;;;20.58;11.05;;;27.50;86.80;;;;;;4954022;28;20133;-77
2022/08/17 04:51:41;;;;;;;23.75;10.77;;;27.50;96.00;;;;;;4954370;28;20035;-78
2022/08/17 04:54:09;;;;;;;16.45;10.15;;;;;;;;;;4954164;28;20151;-78
2022/08/17 04:56:35;;;;;;;15.02;9.00;;;28.00;93.30;;;;;;4954145;28;20023;-77
2022/08/17 04:59:05;;;;;;;13.35;7.90;;;28.40;83.40;;;;;;4954076;28;20043;-77
2022/08/17 05:01:33;;;;;;;14.00;7.88;;;;;;;;;;4954131;28;20019;-77
2022/08/17 05:04:02;;;;;;;11.63;6.53;;;28.80;79.30;;;;;;4954114;29;20031;-78
2022/08/17 05:06:28;;;;;;;13.38;5.95;;;28.70;79.80;;;;;;4953854;28;20030;-78
2022/08/17 05:08:56;;;;;;;13.32;5.47;;;29.10;80.30;;;;;;4953980;28;20023;-78
2022/08/17 05:11:24;;;;;;;12.95;5.82;;;28.50;79.40;;;;;;4953984;28;20028;-78
2022/08/17 05:13:51;;;;;;;11.35;5.40;;;27.60;80.80;;;;;;4953648;28;20069;-76
2022/08/17 05:16:19;;;;;;;12.63;5.30;;;26.80;84.30;;;;;;4953777;28;20046;-77
2022/08/17 05:18:45;;;;;;;22.50;5.30;;;25.90;89.50;;;;;;4953638;28;20019;-77
2022/08/17 05:21:11;;;;;;;17.20;5.32;;;25.60;92.50;;;;;;4953825;28;20394;-77
2022/08/17 05:23:38;;;;;;;10.10;5.28;;;25.50;94.00;;;;;;4953432;28;20024;-75
2022/08/17 05:26:04;;;;;;;13.70;5.40;;;25.20;96.10;;;;;;4953730;28;20038;-71
2022/08/17 05:28:30;;;;;;;22.08;5.40;;;25.00;97.60;;;;;;4953713;28;20015;-77
2022/08/17 05:30:58;;;;;;;13.68;4.68;;;24.90;98.30;;;;;;4953786;28;20458;-77
2022/08/17 05:33:28;;;;;;;9.90;4.88;;;25.10;98.30;;;;;;4953609;28;20027;-73
2022/08/17 05:35:57;;;;;;;17.65;5.95;;;24.90;98.30;;;;;;4953769;28;20102;-76
2022/08/17 05:38:25;;;;;;;21.10;5.57;;;25.00;98.90;;;;;;4953695;28;20098;-76
2022/08/17 05:40:51;;;;;;;9.63;5.07;;;25.10;98.20;;;;;;4952822;28;20039;-74
2022/08/17 05:43:22;;;;;;;13.98;5.53;;;25.10;98.10;;;;;;4953887;28;20023;-73
2022/08/17 05:45:56;;;;;;;16.45;5.65;;;25.10;98.00;;;;;;4954086;28;20142;-72
2022/08/17 05:48:24;;;;;;;20.10;5.35;;;25.60;98.30;;;;;;4952935;29;20039;-77
2022/08/17 05:51:22;;;;;;;19.08;5.25;;;25.80;97.10;;;;;;4954062;28;20077;-77
2022/08/17 05:54:08;;;;;;;12.93;4.50;;;26.00;96.40;;;;;;4932178;29;20047;-77
2022/08/17 05:56:55;;;;;;;17.35;5.10;;;26.10;95.50;;;;;;4932764;29;20038;-75
2022/08/17 05:59:40;;;;;;;9.63;4.20;;;26.20;94.30;;;;;;4932372;29;20043;-77
2022/08/17 06:02:19;;;;;;;8.70;4.80;;;26.40;94.40;;;;;;4933238;29;20077;-77
2022/08/17 06:05:04;;;;;;;11.70;4.28;;;26.60;94.10;;;;;;4935905;29;20062;-77
2022/08/17 06:07:42;;;;;;;9.10;4.20;;;26.80;93.40;;;;;;4935886;29;20046;-73
2022/08/17 06:10:28;;;;;;;7.28;4.15;;;27.00;92.90;;;;;;4935742;29;20068;-73
2022/08/17 06:13:21;;;;;;;9.55;4.47;;;27.20;92.00;;;;;;4935720;29;20042;-77
2022/08/17 06:16:05;;;;;;;13.23;4.45;;;27.20;90.70;;;;;;4935598;29;20051;-75
2022/08/17 06:18:44;;;;;;;13.32;4.32;;;27.10;90.70;;;;;;4935808;29;20063;-74
2022/08/17 06:21:15;;;;;;;8.32;3.92;;;27.40;90.60;;;;;;4935573;29;20046;-77
2022/08/17 06:24:01;;;;;;;;;;;27.40;90.30;;;;;;4935633;29;20086;-75
2022/08/17 06:26:32;;;;;;;10.07;4.22;;;27.50;90.50;;;;;;4935413;29;19911;-76
2022/08/17 06:29:03;;;;;;;11.40;4.03;;;;;;;;;;4935712;29;20075;-76
2022/08/17 06:31:34;;;;;;;7.43;4.38;;;;;;;;;;4956768;28;20023;-77
2022/08/17 06:34:02;;;;;;;6.57;4.03;;;28.00;93.40;;;;;;4956384;28;20043;-74
2022/08/17 06:36:38;;;;;;;9.85;4.13;;;;;;;;;;4956829;28;20027;-74
2022/08/17 06:39:28;;;;;;;7.47;3.78;;;28.00;86.70;;;;;;4956633;29;20035;-64
2022/08/17 06:42:13;;;;;;;10.60;3.85;;;28.00;88.90;;;;;;4956747;28;20031;-74
2022/08/17 06:44:46;;;;;;;9.50;4.70;;;27.80;87.20;;;;;;4955888;28;20482;-73
2022/08/17 06:47:27;;;;;;;10.27;3.95;;;28.20;88.20;;;;;;4952955;28;20035;-73
2022/08/17 06:50:21;;;;;;;8.30;3.72;;;28.40;87.50;;;;;;4955762;28;20087;-74
2022/08/17 06:53:09;;;;;;;8.52;3.78;;;28.10;86.30;;;;;;4956182;28;20027;-74
2022/08/17 06:55:47;;;;;;;9.15;4.47;;;28.20;86.50;;;;;;4956335;28;20046;-74
2022/08/17 06:58:19;;;;;;;9.63;4.00;;;28.20;87.10;;;;;;4956405;28;20027;-74
2022/08/17 07:00:47;;;;;;;8.60;3.92;;;28.30;85.90;;;;;;4956197;28;20035;-74
2022/08/17 07:03:21;;;;;;;12.43;4.38;;;28.50;94.00;;;;;;4955655;28;20027;-76
2022/08/17 07:05:52;;;;;;;10.35;4.72;;;28.60;85.70;;;;;;4955167;28;20042;-78
2022/08/17 07:08:32;;;;;;;12.83;4.33;;;28.90;86.00;;;;;;4955661;28;20024;-76
2022/08/17 07:11:07;;;;;;;12.73;4.50;;;28.60;85.20;;;;;;4955697;28;20136;-77
2022/08/17 07:13:46;;;;;;;7.80;4.03;;;28.90;85.00;;;;;;4954800;28;20287;-76
2022/08/17 07:16:25;;;;;;;13.52;4.03;;;29.10;86.10;;;;;;4955804;28;20545;-76
2022/08/17 07:18:53;;;;;;;8.13;3.83;;;29.30;82.40;;;;;;4953079;28;20582;-75
2022/08/17 07:21:42;;;;;;;7.95;4.40;;;29.60;83.40;;;;;;4953020;28;20038;-70
2022/08/17 07:24:19;;;;;;;6.32;4.05;;;29.50;83.70;;;;;;4952848;29;20058;-77
2022/08/17 07:26:48;;;;;;;8.05;4.05;;;29.50;82.20;;;;;;4954025;28;20034;-72
2022/08/17 07:29:18;;;;;;;9.38;4.43;;;29.70;82.80;;;;;;4954794;28;20032;-77
2022/08/17 07:31:45;;;;;;;10.88;4.10;;;29.60;82.60;;;;;;4954374;28;20051;-74
2022/08/17 07:34:13;;;;;;;8.20;4.07;;;29.70;81.20;;;;;;4954879;28;20054;-71
2022/08/17 07:36:41;;;;;;;12.38;4.63;;;29.70;81.10;;;;;;4954530;28;20035;-76
2022/08/17 07:39:08;;;;;;;10.50;4.60;;;29.90;81.10;;;;;;4954824;28;20028;-77
2022/08/17 07:41:40;;;;;;;8.38;4.20;;;30.10;82.00;;;;;;4954518;28;20546;-77
2022/08/17 07:44:14;;;;;;;18.27;3.90;;;30.20;80.70;;;;;;4954337;28;20054;-77
2022/08/17 07:49:37;;;;;;;9.07;4.47;;;30.40;79.10;;;;;;4943147;29;20023;-70
2022/08/17 07:52:30;;;;;;;7.70;4.65;;;30.40;80.10;;;;;;4954868;28;20023;-71
2022/08/17 07:54:56;;;;;;;12.60;4.78;;;30.40;79.00;;;;;;4954575;28;20043;-77
2022/08/17 07:57:29;;;;;;;11.13;4.00;;;30.30;78.70;;;;;;4954029;28;20026;-75
2022/08/17 08:00:01;;;;;;;10.95;4.32;;;30.30;78.20;;;;;;4953996;28;20027;-77
2022/08/17 08:02:37;;;;;;;7.38;3.55;;;30.30;79.20;;;;;;4969278;28;20031;-74
2022/08/17 08:05:26;;;;;;;7.00;3.28;;;30.30;78.40;;;;;;4947966;29;20440;-77
2022/08/17 08:08:16;;;;;;;7.00;3.65;;;30.20;79.60;;;;;;4954587;28;20019;-77
2022/08/17 08:10:42;;;;;;;5.22;3.55;;;30.30;80.00;;;;;;4953737;28;20042;-75
2022/08/17 08:13:20;;;;;;;7.82;4.28;;;30.20;78.10;;;;;;4954274;28;20097;-72
2022/08/17 08:15:50;;;;;;;7.57;3.67;;;30.30;79.20;;;;;;4954514;28;20039;-76
2022/08/17 08:18:30;;;;;;;7.55;3.58;;;30.20;79.00;;;;;;4954484;28;20027;-77
2022/08/17 08:21:09;;;;;;;8.07;3.97;;;30.30;79.50;;;;;;4954507;29;20499;-77
2022/08/17 08:23:56;;;;;;;10.88;4.38;;;30.20;78.50;;;;;;4954246;28;20039;-75
2022/08/17 08:26:32;;;;;;;7.20;3.70;;;30.50;78.40;;;;;;4952964;28;20062;-77
2022/08/17 08:29:14;;;;;;;5.47;3.70;;;30.80;80.10;;;;;;4954186;28;20042;-77
2022/08/17 08:32:06;;;;;;;12.00;4.13;;;30.80;79.10;;;;;;4954493;28;20101;-77
2022/08/17 08:35:02;;;;;;;7.40;3.80;;;31.00;79.50;;;;;;4954507;28;20396;-77
2022/08/17 08:37:57;;;;;;;7.43;3.88;;;30.90;78.70;;;;;;4953808;28;20688;-76
2022/08/17 08:40:51;;;;;;;9.60;4.65;;;31.20;79.20;;;;;;4953006;29;20083;-76
2022/08/17 08:43:48;;;;;;;5.68;3.15;;;31.20;77.70;;;;;;4953563;28;20227;-77
2022/08/17 08:46:23;;;;;;;5.45;3.22;;;31.00;77.50;;;;;;4953805;28;20122;-78
2022/08/17 08:49:15;;;;;;;6.18;3.22;;;30.90;77.90;;;;;;4953636;28;20035;-76
2022/08/17 08:52:00;;;;;;;8.82;3.53;;;31.00;78.20;;;;;;4953903;28;20031;-76
2022/08/17 08:54:46;;;;;;;6.97;3.67;;;31.20;78.00;;;;;;4953760;28;20035;-75
2022/08/17 08:57:18;;;;;;;7.00;3.67;;;31.40;77.60;;;;;;4953916;28;20500;-77
2022/08/17 09:00:16;;;;;;;10.15;4.00;;;31.50;76.60;;;;;;4953439;28;20026;-78
2022/08/17 09:03:21;;;;;;;7.00;3.65;;;31.60;77.70;;;;;;4953042;28;20061;-78
2022/08/17 09:06:10;;;;;;;5.35;3.10;;;31.70;76.80;;;;;;4953106;28;20030;-75
2022/08/17 09:08:49;;;;;;;7.65;3.25;;;31.50;77.50;;;;;;4953196;28;20027;-76
2022/08/17 09:11:40;;;;;;;4.60;2.88;;;31.70;78.70;;;;;;4952674;28;20023;-78
2022/08/17 09:14:27;;;;;;;4.83;3.03;;;31.90;78.30;;;;;;4950778;28;20129;-78
2022/08/17 09:17:19;;;;;;;7.55;2.85;;;31.80;78.50;;;;;;4951643;28;20671;-75
2022/08/17 09:20:04;;;;;;;5.43;3.28;;;32.20;76.60;;;;;;4951170;29;20028;-76
2022/08/17 09:22:39;;;;;;;4.95;2.95;;;;;;;;;;4953922;28;20036;-75
2022/08/17 09:25:15;;;;;;;6.10;2.90;;;32.20;76.80;;;;;;4953319;28;20537;-74
2022/08/17 09:28:08;;;;;;;6.07;3.40;;;32.20;75.70;;;;;;4952617;28;20031;-73
2022/08/17 09:30:49;;;;;;;12.30;3.72;;;32.10;75.60;;;;;;4945842;28;20031;-74
2022/08/17 09:33:21;;;;;;;11.23;3.80;;;32.00;76.10;;;;;;4953703;28;20118;-75
2022/08/17 09:35:54;;;;;;;7.30;3.47;;;31.80;76.90;;;;;;4940737;28;20390;-75
2022/08/17 09:38:39;;;;;;;7.45;3.90;;;31.80;76.10;;;;;;4957522;28;20027;-75
2022/08/17 09:41:16;;;;;;;8.60;3.65;;;32.30;76.80;;;;;;4956301;28;20043;-75
2022/08/17 09:43:49;;;;;;;6.53;3.40;;;32.50;77.10;;;;;;4956227;28;20043;-75
2022/08/17 09:46:24;;;;;;;5.22;2.80;;;32.20;75.00;;;;;;4956927;28;20046;-76
2022/08/17 09:49:10;;;;;;;3.38;2.38;;;32.40;74.50;;;;;;4957193;28;20054;-75
2022/08/17 09:51:42;;;;;;;4.40;2.30;;;32.30;76.30;;;;;;4957049;28;20118;-76
2022/08/17 09:54:25;;;;;;;5.05;3.13;;;32.50;74.20;;;;;;4957016;28;20027;-75
2022/08/17 09:57:04;;;;;;;6.22;3.28;;;32.20;74.20;;;;;;4957201;28;20039;-74
2022/08/17 09:59:44;;;;;;;9.20;3.40;;;32.50;77.40;;;;;;4956644;28;20034;-75
2022/08/17 10:02:28;;;;;;;5.00;2.90;;;32.90;76.20;;;;;;4957420;28;20070;-77
2022/08/17 10:05:12;;;;;;;7.68;3.05;;;32.80;76.10;;;;;;4957108;28;20133;-76
2022/08/17 10:07:54;;;;;;;5.85;2.83;;;32.80;74.00;;;;;;4956786;28;20031;-77
2022/08/17 10:10:53;;;;;;;4.53;2.75;;;32.70;75.30;;;;;;4956764;28;20397;-76
2022/08/17 10:13:48;;;;;;;6.07;2.58;;;33.10;78.70;;;;;;4934430;29;20417;-76
2022/08/17 10:16:22;;;;;;;4.65;2.67;;;33.10;77.70;;;;;;4935467;29;20079;-76
2022/08/17 10:19:10;;;;;;;6.97;3.38;;;32.70;79.30;;;;;;4935681;29;20059;-70
2022/08/17 10:27:22;;;;;;;4.53;2.75;;;32.70;78.00;;;;;;4934359;29;20028;-76
2022/08/17 10:29:54;;;;;;;6.10;3.00;;;32.50;77.20;;;;;;4934315;29;20035;-77
2022/08/17 10:32:36;;;;;;;3.33;2.42;;;32.50;76.20;;;;;;4934937;29;20070;-75
2022/08/17 10:35:24;;;;;;;11.68;3.20;;;32.80;76.60;;;;;;4935162;28;20581;-76
2022/08/17 10:38:20;;;;;;;5.82;2.47;;;33.10;77.90;;;;;;4935260;29;20040;-67
2022/08/17 10:41:04;;;;;;;5.25;2.72;;;33.10;80.20;;;;;;4930081;29;20525;-74
2022/08/17 10:43:51;;;;;;;4.68;2.90;;;32.90;79.00;;;;;;4934184;29;20044;-76
2022/08/17 10:46:28;;;;;;;3.88;2.55;;;32.80;81.80;;;;;;4934508;29;20404;-77
2022/08/17 10:49:16;;;;;;;3.33;2.28;;;32.70;81.20;;;;;;4944812;28;20102;-76
2022/08/17 10:51:46;;;;;;;3.22;2.28;;;32.80;82.40;;;;;;4956090;28;20034;-76
2022/08/17 10:54:24;;;;;;;3.35;2.30;;;32.80;81.40;;;;;;4955249;28;20474;-78
2022/08/17 10:56:55;;;;;;;3.67;2.58;;;32.80;83.20;;;;;;4955815;28;20027;-78
2022/08/17 10:59:36;;;;;;;4.63;2.33;;;32.90;82.80;;;;;;4955954;28;20027;-76
2022/08/17 11:02:26;;;;;;;4.90;2.78;;;32.90;87.10;;;;;;4955816;28;20031;-77
2022/08/17 11:05:10;;;;;;;3.80;2.45;;;33.40;96.80;;;;;;4955738;28;20039;-77
2022/08/17 11:07:53;;;;;;;3.40;2.42;;;33.20;86.60;;;;;;4956230;28;20033;-79
2022/08/17 11:10:36;;;;;;;3.53;2.55;;;33.30;89.50;;;;;;4955582;28;20035;-78
2022/08/17 11:13:08;;;;;;;5.75;2.25;;;33.30;86.40;;;;;;4955484;29;20024;-78
2022/08/17 11:15:55;;;;;;;5.28;2.13;;;33.10;90.10;;;;;;4955665;28;20035;-78
2022/08/17 11:18:52;;;;;;;3.97;2.47;;;33.20;82.00;;;;;;4955854;29;20035;-78
2022/08/17 11:21:37;;;;;;;4.68;1.90;;;33.30;85.20;;;;;;4934038;29;20039;-79
2022/08/17 11:24:26;;;;;;;5.28;2.75;;;33.20;87.50;;;;;;4934056;29;20047;-78
2022/08/17 11:27:22;;;;;;;3.10;2.28;;;33.10;88.70;;;;;;4858960;29;20041;-78
2022/08/17 11:29:59;;;;;;;8.10;2.97;;;33.50;89.40;;;;;;4859319;29;20029;-76
2022/08/17 11:32:39;;;;;;;5.35;2.58;;;33.50;91.20;;;;;;4859223;29;20053;-77
2022/08/17 11:35:19;;;;;;;4.40;2.45;;;33.50;92.70;;;;;;4858714;29;20109;-77
2022/08/17 11:38:09;;;;;;;4.50;2.53;;;33.40;90.10;;;;;;4858665;29;20042;-74
2022/08/17 11:40:40;;;;;;;4.78;3.38;;;33.10;82.60;;;;;;4858446;29;20045;-75
2022/08/17 11:43:29;;;;;;;4.35;2.80;;;33.20;89.00;;;;;;4858382;29;20074;-78
2022/08/17 11:45:59;;;;;;;10.27;2.60;;;33.50;93.30;;;;;;4859176;29;20057;-76
2022/08/17 11:51:59;;;;;;;7.13;2.63;;;33.60;85.10;;;;;;4857586;29;20033;-75
2022/08/17 11:54:42;;;;;;;5.00;2.83;;;33.50;87.10;;;;;;4857845;29;20041;-75
2022/08/17 11:57:26;;;;;;;5.00;2.80;;;33.60;90.60;;;;;;4861659;29;20147;-77
2022/08/17 11:59:51;;;;;;;3.35;2.47;;;33.60;93.00;;;;;;4895204;29;20028;-77
2022/08/17 12:02:34;;;;;;;5.75;2.50;;;33.70;91.00;;;;;;4887272;29;20632;-76
2022/08/17 12:05:25;;;;;;;3.92;2.45;;;33.60;90.90;;;;;;4946450;29;20043;-77
2022/08/17 12:08:00;;;;;;;4.45;2.40;;;33.60;91.80;;;;;;4954336;28;20390;-78
2022/08/17 12:10:30;;;;;;;4.20;2.92;;;33.80;90.50;;;;;;4955089;28;20034;-77
2022/08/17 12:12:59;;;;;;;6.25;2.35;;;33.80;92.00;;;;;;4954844;28;20504;-77
2022/08/17 12:15:33;;;;;;;5.05;3.03;;;33.90;92.00;;;;;;4955087;28;20039;-78
2022/08/17 12:17:59;;;;;;;5.05;2.35;;;33.90;94.50;;;;;;4954762;28;20027;-77
2022/08/17 12:20:36;;;;;;;4.38;2.47;;;33.50;93.30;;;;;;4954863;28;20111;-80
2022/08/17 12:23:10;;;;;;;6.07;2.92;;;33.30;95.30;;;;;;4954974;28;20031;-79
2022/08/17 12:25:48;;;;;;;8.60;3.00;;;33.30;96.80;;;;;;4954924;28;20027;-79
2022/08/17 12:28:22;;;;;;;4.20;2.88;;;33.30;94.30;;;;;;4954621;28;20102;-64
2022/08/17 12:30:50;;;;;;;6.35;2.97;;;33.20;93.00;;;;;;4950688;28;20070;-75
2022/08/17 12:33:21;;;;;;;4.70;3.00;;;33.10;90.20;;;;;;4951687;28;20058;-78
2022/08/17 12:35:47;;;;;;;5.38;2.45;;;33.00;95.90;;;;;;4949064;28;20489;-78
2022/08/17 12:38:15;;;;;;;3.35;2.72;;;33.00;95.80;;;;;;4951960;28;20030;-77
2022/08/17 12:40:53;;;;;;;4.13;2.65;;;33.10;99.90;;;;;;4954283;28;20031;-74
2022/08/17 12:43:26;;;;;;;4.43;2.75;;;33.10;98.80;;;;;;4953942;28;20030;-77
2022/08/17 12:46:00;;;;;;;5.00;2.50;;;33.30;96.80;;;;;;4954189;28;20045;-78
2022/08/17 12:48:27;;;;;;;6.70;2.88;;;;;;;;;;4954247;28;20114;-78
2022/08/17 12:51:06;;;;;;;7.32;2.80;;;32.70;99.90;;;;;;4954314;28;20024;-77
2022/08/17 12:53:34;;;;;;;7.18;3.40;;;32.60;99.90;;;;;;4953985;28;20031;-80
2022/08/17 12:56:05;;;;;;;4.47;2.65;;;32.50;97.50;;;;;;4954193;28;20035;-79
2022/08/17 12:58:34;;;;;;;5.93;3.20;;;32.50;98.80;;;;;;4954292;28;20139;-78
2022/08/17 13:01:08;;;;;;;11.40;3.05;;;32.60;98.50;;;;;;4954330;28;20023;-76
2022/08/17 13:03:43;;;;;;;7.03;3.25;;;32.80;98.90;;;;;;4954130;28;20490;-78
2022/08/17 13:06:13;;;;;;;8.02;3.40;;;33.20;99.90;;;;;;4968733;28;20039;-74
2022/08/17 13:08:46;;;;;;;5.43;2.42;;;33.20;97.70;;;;;;4953311;28;20114;-73
2022/08/17 13:11:17;;;;;;;5.65;3.08;;;33.10;99.50;;;;;;4965836;28;20063;-75
2022/08/17 13:13:46;;;;;;;4.95;2.88;;;33.40;99.90;;;;;;4955139;29;20428;-75
2022/08/17 13:16:13;;;;;;;3.60;2.47;;;33.40;99.90;;;;;;4957795;28;20031;-75
2022/08/17 13:18:43;;;;;;;16.67;3.25;;;33.40;99.90;;;;;;4957161;28;20027;-73
2022/08/17 13:21:18;;;;;;;3.40;2.70;;;33.50;99.90;;;;;;4957354;28;20031;-76
2022/08/17 13:24:06;;;;;;;5.55;3.08;;;33.70;99.90;;;;;;4957862;28;20038;-75
2022/08/17 13:26:57;;;;;;;5.28;2.75;;;33.90;99.90;;;;;;4957429;28;20042;-73
2022/08/17 13:29:32;;;;;;;8.85;4.00;;;33.90;99.90;;;;;;4955672;29;20090;-79
2022/08/17 13:32:07;;;;;;;4.85;2.97;;;34.00;99.90;;;;;;4957926;28;20023;-75
2022/08/17 13:34:43;;;;;;;5.30;2.78;;;34.20;99.90;;;;;;4957321;28;20059;-78
2022/08/17 13:37:29;;;;;;;5.47;2.75;;;34.20;99.90;;;;;;4957327;28;20024;-76
2022/08/17 13:40:10;;;;;;;4.68;2.60;;;34.20;99.90;;;;;;4957516;28;20062;-75
2022/08/17 13:42:43;;;;;;;6.90;3.15;;;34.30;99.90;;;;;;4957722;28;20122;-77
2022/08/17 13:45:30;;;;;;;3.72;2.65;;;34.40;99.90;;;;;;4957534;28;20058;-78
2022/08/17 13:48:23;;;;;;;7.40;2.60;;;;;;;;;;4957677;28;20038;-76